RESULTATS »

INSCRITS PRESENTATS ACABEN RETIRATS DESQUALIFICATS DIST. TRAM 1 DIST. TRAM 2 DIST. TRAM 3 TEMP. EXT TEMP. AIGUA
392 371 20 1 10 40 5 0 0

CLASSIFICACIÓ

MASCULÍ FEMENÍ CATEGORIES CLUBS (MASCULINA) CLUBS (FEMENINA) INDIVIDUALS GRUPS D'EDAT

LLOCDORSALNOMCLUBCAT.T.META| P.Tram 1 || P.Tram 2 |Km/hTEMPS| P.Tram 3 |PARC_1PARC_2
1 5048MARIA REMEDIOS CARRASCO TABSOLUT SPORTV1F02:24:1611500:40:5421601:21:2329.4902:02:179300:21:590:00:000:00:00
2 1976PILAR RUS GARCIAC.N. REUS PLOMSV1F02:25:1412000:41:0223401:22:3529.0602:03:377700:21:370:00:000:00:00
3 60ANABEL GRACIA GARASAFASTTRIATLON CLUBV1F02:25:5919100:43:2618301:19:2730.2102:02:5313500:23:060:00:000:00:00
4 5181LEONOR FONT BALDUQUEC.E. PICORNELLABF02:28:2712900:41:1724801:24:1928.4602:05:3612600:22:510:00:000:00:00
5 5081MARIA MARTINEZ CORELLANOC.E. PICORNELLABF02:29:5123000:44:4423301:22:3029.0902:07:1411900:22:370:00:000:00:00
6 1822CRISTINA PRAT DOTC.N. PRAT-TRIATLOABF02:30:3124900:45:3222101:21:4229.3802:07:1414300:23:170:00:000:00:00
7 4045IRENE RODRIGUEZ GUELLC.N. PRAT-TRIATLOABF02:30:4525600:45:4621701:21:2929.4502:07:1515400:23:300:00:000:00:00
8 1905CAROLINA VALMAÑA PIC.N. CATALUNYAV1F02:30:5427000:46:2520601:20:4929.7002:07:1416200:23:400:00:000:00:00
9 3501MIRIAM CODINA CASTILLOCLUB TRIATLO GRANOLLERSABF02:31:2124400:45:2722701:21:5829.2802:07:2517500:23:560:00:000:00:00
10 4025RAQUEL GUTIÉRREZ ABADFASTTRIATLON CLUBABF02:32:0026100:45:4921901:21:3429.4202:07:2319600:24:370:00:000:00:00
11 1814LAIA PI BOLTAC.N. CATALUNYASUB23F02:32:1026700:46:1020801:20:5329.6702:07:0322000:25:070:00:000:00:00
12 21AIDA FABREGA ARGERICHC.N. REUS PLOMSABF02:32:3422700:44:4123501:22:3829.0402:07:1922700:25:150:00:000:00:00
13 1909EULALIA CALVERAS AUGEC.T. S.J. ABADESSESV1F02:34:3120500:43:4425201:24:4228.3402:08:2625500:26:050:00:000:00:00
14 82MERCE TUSELL QUEVEDOC.N. REUS PLOMSABF02:36:0118800:43:2124501:24:0228.5602:07:2330500:28:380:00:000:00:00
15 3518ANNA FLAQUER PORTIFASTTRIATLON CLUBSUB23F02:37:0128400:47:0026101:25:1928.1302:12:1920300:24:420:00:000:00:00
16 5109LAURENCE LESTANGCLUB TRIATLO ANYOSPARKV1F02:37:5524700:45:2929201:28:1827.1802:13:4718100:24:080:00:000:00:00
17 1858ANNA POBLET CASANOVASCLUB ESPORTIU CUBE MANRESABF02:38:3330900:48:1526601:25:3128.0602:13:4620500:24:470:00:000:00:00
18 34JUDITH ANDUJAR PIÑOLCLUB TRIATLO GRANOLLERSABF02:39:3831500:48:3625401:24:5528.2602:13:3125600:26:070:00:000:00:00
19 5119OLGA PONS BOSCHC.E. PICORNELLABF02:42:0127300:46:3430301:29:2726.8302:16:0125200:26:000:00:000:00:00
20 4007CLARA HERNANDEZ CORTESSBR OPEN TEAMABF02:42:3231700:48:3829401:28:3327.1002:17:1123100:25:210:00:000:00:00
21 1912MERCE ASENSIO MIGUELC.N. CATALUNYAV1F02:44:1131400:48:3628101:27:2327.4702:15:5929800:28:120:00:000:00:00
22 112NURIA PUBILL LLEONARTFASTTRIATLON CLUBABF02:45:45000:00:00000:00:000.0000:00:00000:00:000:00:000:00:00
23 4008JANETTE SOLSONA NOVELLP.C. CERVERA-TRIATLOABF02:46:3933100:50:0630601:29:4526.7402:19:5127200:26:480:00:000:00:00
24 5138LAURA TERRADAS ILLC.N. PRAT-TRIATLOABF02:47:1528800:47:0729501:28:3827.0802:15:4533600:31:300:00:000:00:00
25 5182MÒNICA SARDÀ CIVILTRIATLO FISIORUTPUJOL.COMABF02:51:4933600:50:2632801:33:4425.6002:24:1028500:27:390:00:000:00:00
26 5019CORAL MONTAÑA PONSACLUB TRIATLO GRANOLLERSV1F02:53:3733700:50:2834001:37:0624.7202:27:3425400:26:030:00:000:00:00
27 4070SUSANA CASTAN SALINASCLUB ESPORTIU PRORUNNERSV1F02:53:4830100:47:4335201:44:2322.9902:32:068000:21:420:00:000:00:00
28 85SUSAGNA RODRIGUEZ RUANOCLUB TRIATLO L´EIX DE NAVABF02:55:4434000:50:5833801:36:3024.8702:27:2829900:28:160:00:000:00:00
29 3542EVA PEREZ TRUJILLOCLUB ATLETISME SANT BOIABF02:56:2832700:49:4134101:37:0824.7102:26:4931600:29:390:00:000:00:00
30 3529CHIARA TRONCARELLIC.E. PICORNELLABF02:57:5435300:53:0633101:34:2625.4102:27:3232800:30:220:00:000:00:00
31 5089JÚLIA BREIZ PELLICERC.E. TRIATHLONBCNABF02:58:5733000:49:5534401:37:4124.5702:27:3633400:31:210:00:000:00:00
32 1885MAMEN ROMAN MARINC.N. TERRASSA-CICLES MOREABF03:04:5235600:53:1434601:39:2524.1402:32:3934300:32:130:00:000:00:00
33 5137AITANA DOMÈNECH MARTÍNEZDISTANCE LA SALLEABF03:07:3828600:47:0136701:54:5620.8802:41:5723900:25:410:00:000:00:00
34 5040BERYL BARBER MARTÍNEZ DE CAMBRILS CLUB TRIATLOV1F03:09:4636600:57:3435001:40:3523.8602:38:0933900:31:370:00:000:00:00
35 4032VIRGINIA IZQUIERDO FERNANCERDANYOLA CHV1F03:11:1435700:53:2135401:45:2822.7602:38:4934700:32:250:00:000:00:00
36 4012MARIA JORDÀ ESCODASBR OPEN TEAMV2F03:12:1936000:54:3436201:48:0222.2202:42:3631700:29:430:00:000:00:00
37 7023MIREIA VIZCAYA GRAVELLICENCIA DE DIAV1F03:14:0236200:55:4535801:46:1022.6102:41:5534100:32:070:00:000:00:00
38 31MONTSE CUEVAS CASTILLOCLUB TRIATLO GRANOLLERSV2F03:15:3336400:56:0436301:48:2422.1402:44:2833300:31:050:00:000:00:00
39 20MONSERRAT CLAVERO SANCHEZC.N. REUS PLOMSV3F03:17:5836701:00:0135301:45:0222.8502:45:0335100:32:550:00:000:00:00
40 92EVA DONAT VEIGAC.N. CATALUNYAV1F03:18:2736500:56:3136501:51:0021.6202:47:3133200:30:560:00:000:00:00
41 5002CLARA RUIZ RADIGALESC.A. IGUALADAV1F03:34:4936801:03:1036001:46:3522.5202:49:4536600:45:040:00:000:00:00






FEDERACIÓ CATALANA DE TRIATLÓ
SEU CENTRAL I CORRESPONDÈNCIA: Rambla Guipúscoa 23-25 2on-D · 08018 Barcelona · Tel / Fax : 93 307 93 35
ATENCIÓ AL PÚBLIC: Passeig Joan de Borbó, 93 (Club Natació Barcelona) · 08039 Barcelona · Tel / Fax : 93 307 93 32